Terminal Aerodrome Forecast
Issued by NWS Louisville, KY

Home | Current Version | Previous Version | Text Only | Print | Product List | Glossary On
Versions: 1 2 3 4 5 6 7 8 9 10 11 12 13 14 15
000
FTUS43 KLMK 112329
TAFSDF
TAF
KSDF 112329Z 1200/1306 23012KT P6SM BKN200
     FM120300 28015G25KT P6SM BKN060
     FM120700 30016G28KT P6SM VCSH OVC025
     FM121300 30018G28KT P6SM SCT035 BKN050
     FM122300 30005KT P6SM FEW040=

USA.gov is the U.S. government's official web portal to all federal, state and local government web resources and services.